Time;durP1;ratioP1;P1;durP2;ratioP2;P2;SDS_P1;SDS_P2;PMS_P1;PMS_P2;Temp;Humidity;BMP_temperature;BMP_pressure;BME280_temperature;BME280_humidity;BME280_pressure;Samples;Min_cycle;Max_cycle;Signal;HPM_P1;HPM_P2
2022/11/07 00:01:16;;;;;;;10.93;9.50;;;10.00;99.90;;;;;;5047837;28;20035;-59
2022/11/07 00:04:02;;;;;;;14.07;10.30;;;9.90;99.90;;;;;;5047227;28;20068;-59
2022/11/07 00:06:48;;;;;;;11.70;9.80;;;9.90;99.90;;;;;;5045416;28;20032;-61
2022/11/07 00:09:34;;;;;;;11.55;9.50;;;9.90;99.90;;;;;;5039320;28;20064;-59
2022/11/07 00:12:20;;;;;;;11.43;9.82;;;9.80;99.90;;;;;;5040623;28;20427;-61
2022/11/07 00:15:07;;;;;;;12.80;10.63;;;9.70;99.90;;;;;;5052372;28;20037;-61
2022/11/07 00:17:52;;;;;;;14.25;10.02;;;9.70;99.90;;;;;;5054511;28;20025;-61
2022/11/07 00:20:38;;;;;;;14.50;10.32;;;9.70;99.90;;;;;;5053915;28;20098;-60
2022/11/07 00:23:24;;;;;;;12.40;9.77;;;9.70;99.90;;;;;;5055324;28;20337;-59
2022/11/07 00:26:13;;;;;;;12.27;10.38;;;9.70;99.90;;;;;;5053119;28;20155;-61
2022/11/07 00:28:59;;;;;;;11.60;9.68;;;9.80;99.90;;;;;;5035716;28;20032;-59
2022/11/07 00:31:46;;;;;;;12.45;9.68;;;9.80;99.90;;;;;;5055498;28;20032;-56
2022/11/07 00:34:36;;;;;;;12.13;10.27;;;9.70;99.90;;;;;;5054392;28;20059;-59
2022/11/07 00:37:21;;;;;;;12.48;10.60;;;9.80;99.90;;;;;;5054829;28;20041;-61
2022/11/07 00:40:08;;;;;;;12.95;10.05;;;9.80;99.90;;;;;;5054737;28;20029;-57
2022/11/07 00:42:54;;;;;;;12.02;10.35;;;9.80;99.90;;;;;;5054591;28;20021;-58
2022/11/07 00:45:40;;;;;;;12.35;10.38;;;9.70;99.90;;;;;;5055421;28;20032;-59
2022/11/07 00:48:26;;;;;;;13.05;11.05;;;9.80;99.90;;;;;;5052862;28;20074;-60
2022/11/07 00:51:24;;;;;;;12.18;10.25;;;9.80;99.90;;;;;;5053058;28;20380;-56
2022/11/07 00:54:10;;;;;;;11.25;9.65;;;9.80;99.90;;;;;;5052953;28;20017;-60
2022/11/07 00:56:56;;;;;;;11.60;9.88;;;9.80;99.90;;;;;;5053847;28;20029;-58
2022/11/07 00:59:42;;;;;;;12.32;10.27;;;9.80;99.90;;;;;;5056425;28;20040;-59
2022/11/07 01:02:28;;;;;;;11.77;10.07;;;9.70;99.90;;;;;;5060401;28;20040;-57
2022/11/07 01:05:13;;;;;;;11.45;10.23;;;9.70;99.90;;;;;;5068777;28;20035;-59
2022/11/07 01:07:59;;;;;;;12.93;10.20;;;9.70;99.90;;;;;;5070799;28;20150;-60
2022/11/07 01:10:45;;;;;;;11.45;9.88;;;9.60;99.90;;;;;;5068752;28;20469;-59
2022/11/07 01:13:32;;;;;;;11.35;9.68;;;9.60;99.90;;;;;;5066591;28;20033;-60
2022/11/07 01:16:18;;;;;;;10.68;9.57;;;9.50;99.90;;;;;;5053836;28;20610;-59
2022/11/07 01:19:05;;;;;;;12.65;9.80;;;9.60;99.90;;;;;;5053181;28;20025;-59
2022/11/07 01:21:51;;;;;;;11.23;9.65;;;9.60;99.90;;;;;;5049125;28;20656;-56
2022/11/07 01:24:37;;;;;;;12.70;9.68;;;9.60;99.90;;;;;;5050734;28;20025;-60
2022/11/07 01:27:23;;;;;;;10.63;9.52;;;9.60;99.90;;;;;;5036910;28;20041;-59
2022/11/07 01:30:09;;;;;;;13.50;10.93;;;9.60;99.90;;;;;;5028779;28;20048;-57
2022/11/07 01:32:55;;;;;;;12.43;10.10;;;9.60;99.90;;;;;;5036549;28;20021;-58
2022/11/07 01:35:41;;;;;;;10.70;9.20;;;9.70;99.90;;;;;;5036315;28;20107;-58
2022/11/07 01:38:28;;;;;;;11.82;10.10;;;9.70;99.90;;;;;;5052553;28;20029;-58
2022/11/07 01:41:24;;;;;;;11.32;9.52;;;9.70;99.90;;;;;;5048864;28;20033;-58
2022/11/07 01:44:10;;;;;;;10.60;9.20;;;9.70;99.90;;;;;;5048879;28;20072;-57
2022/11/07 01:46:58;;;;;;;12.88;10.00;;;9.70;99.90;;;;;;5051438;28;20025;-57
2022/11/07 01:49:44;;;;;;;10.27;9.18;;;9.80;99.90;;;;;;5050404;28;20104;-57
2022/11/07 01:52:35;;;;;;;11.65;9.43;;;9.80;99.90;;;;;;5049799;28;20552;-60
2022/11/07 01:55:30;;;;;;;10.95;9.43;;;9.70;99.90;;;;;;5050117;28;20017;-56
2022/11/07 01:58:16;;;;;;;9.75;8.75;;;9.70;99.90;;;;;;5049627;28;20032;-58
2022/11/07 02:01:03;;;;;;;9.63;8.43;;;9.70;99.90;;;;;;5050286;28;20033;-58
2022/11/07 02:03:50;;;;;;;10.38;8.63;;;9.70;99.90;;;;;;5048853;28;20053;-60
2022/11/07 02:06:46;;;;;;;10.30;8.68;;;9.70;99.90;;;;;;5027774;28;20668;-59
2022/11/07 02:09:32;;;;;;;9.43;8.23;;;9.80;99.90;;;;;;5049347;28;20017;-58
2022/11/07 02:12:19;;;;;;;9.43;8.43;;;9.80;99.90;;;;;;5049427;28;20485;-57
2022/11/07 02:15:08;;;;;;;9.82;8.82;;;9.80;99.90;;;;;;5047599;28;20037;-59
2022/11/07 02:17:55;;;;;;;10.30;8.05;;;9.80;99.90;;;;;;5047847;28;20063;-58
2022/11/07 02:20:41;;;;;;;9.98;7.97;;;9.80;99.90;;;;;;5050215;28;20029;-58
2022/11/07 02:23:39;;;;;;;8.95;7.93;;;9.80;99.90;;;;;;5033296;28;20025;-57
2022/11/07 02:26:26;;;;;;;9.85;8.60;;;9.90;99.90;;;;;;5047571;28;20068;-59
2022/11/07 02:29:12;;;;;;;10.77;8.25;;;9.90;99.90;;;;;;5047501;28;20025;-57
2022/11/07 02:32:07;;;;;;;11.88;7.82;;;9.90;99.90;;;;;;5049897;28;20449;-58
2022/11/07 02:35:01;;;;;;;9.73;8.20;;;9.90;99.90;;;;;;5035475;28;20029;-58
2022/11/07 02:37:47;;;;;;;10.52;8.38;;;9.80;99.90;;;;;;5050047;28;20617;-59
2022/11/07 02:40:34;;;;;;;9.10;7.88;;;9.80;99.90;;;;;;5048044;28;20120;-58
2022/11/07 02:43:23;;;;;;;9.23;8.15;;;9.70;99.90;;;;;;5028572;28;20083;-59
2022/11/07 02:46:10;;;;;;;8.93;8.00;;;9.80;99.90;;;;;;5042774;28;20029;-58
2022/11/07 02:48:58;;;;;;;9.52;8.30;;;9.80;99.90;;;;;;5046941;28;20163;-55
2022/11/07 02:51:44;;;;;;;10.05;8.25;;;9.80;99.90;;;;;;5045172;28;20045;-59
2022/11/07 02:54:30;;;;;;;11.75;8.23;;;9.80;99.90;;;;;;5045910;28;20243;-59
2022/11/07 02:57:16;;;;;;;9.55;7.93;;;9.90;99.90;;;;;;5044554;28;20044;-57
2022/11/07 03:00:03;;;;;;;9.70;8.40;;;9.80;99.90;;;;;;5047586;28;20033;-59
2022/11/07 03:02:49;;;;;;;9.38;7.97;;;9.80;99.90;;;;;;5048435;28;20082;-60
2022/11/07 03:05:35;;;;;;;8.93;7.88;;;9.80;99.90;;;;;;5046958;28;20475;-59
2022/11/07 03:08:21;;;;;;;8.85;7.63;;;9.80;99.90;;;;;;5034164;28;20485;-59
2022/11/07 03:11:08;;;;;;;9.68;7.95;;;9.80;99.90;;;;;;5048967;28;20021;-58
2022/11/07 03:13:55;;;;;;;8.80;7.07;;;9.80;99.90;;;;;;5048724;28;20021;-57
2022/11/07 03:16:41;;;;;;;9.98;6.97;;;9.80;99.90;;;;;;5048339;28;20029;-56
2022/11/07 03:19:27;;;;;;;9.18;7.22;;;9.80;99.90;;;;;;5048556;28;20024;-59
2022/11/07 03:22:13;;;;;;;11.10;7.03;;;9.70;99.90;;;;;;5048460;28;20052;-60
2022/11/07 03:24:59;;;;;;;7.70;6.60;;;9.80;99.90;;;;;;5046743;28;20566;-57
2022/11/07 03:27:46;;;;;;;7.75;6.95;;;9.80;99.90;;;;;;5045713;28;20065;-58
2022/11/07 03:30:33;;;;;;;8.55;6.70;;;9.80;99.90;;;;;;5046206;28;20067;-58
2022/11/07 03:33:19;;;;;;;8.25;7.07;;;9.80;99.90;;;;;;5030736;28;20021;-57
2022/11/07 03:36:05;;;;;;;8.43;7.35;;;9.80;99.90;;;;;;5048535;28;20029;-59
2022/11/07 03:38:51;;;;;;;7.63;6.63;;;9.80;99.90;;;;;;5046823;28;20040;-59
2022/11/07 03:41:37;;;;;;;7.55;6.28;;;9.80;99.90;;;;;;5032433;28;20090;-59
2022/11/07 03:44:23;;;;;;;8.30;6.20;;;9.90;99.90;;;;;;5047957;28;20036;-59
2022/11/07 03:47:09;;;;;;;8.73;6.70;;;9.90;99.90;;;;;;5048554;28;20108;-56
2022/11/07 03:49:55;;;;;;;7.80;6.13;;;9.90;99.90;;;;;;5032766;28;20079;-58
2022/11/07 03:52:41;;;;;;;9.68;6.22;;;9.90;99.90;;;;;;5047494;28;20029;-59
2022/11/07 03:55:27;;;;;;;7.90;6.40;;;9.80;99.90;;;;;;5048807;28;20302;-60
2022/11/07 03:58:13;;;;;;;8.10;6.75;;;9.80;99.90;;;;;;5047666;28;20484;-61
2022/11/07 04:00:59;;;;;;;9.57;6.07;;;9.80;99.90;;;;;;5046364;28;20380;-60
2022/11/07 04:03:45;;;;;;;7.10;5.65;;;9.90;99.90;;;;;;5048823;28;20025;-56
2022/11/07 04:06:31;;;;;;;6.90;5.07;;;9.90;99.90;;;;;;5046640;28;20041;-60
2022/11/07 04:09:18;;;;;;;8.73;6.05;;;9.90;99.90;;;;;;5047777;28;20111;-58
2022/11/07 04:18:14;;;;;;;8.55;6.05;;;9.90;99.90;;;;;;5046554;28;20425;-57
2022/11/07 04:21:00;;;;;;;6.28;5.60;;;9.90;99.90;;;;;;5047999;28;20037;-55
2022/11/07 04:23:46;;;;;;;7.13;5.40;;;9.90;99.90;;;;;;5034899;28;20108;-60
2022/11/07 04:29:36;;;;;;;8.02;5.13;;;9.90;99.90;;;;;;5042208;28;20039;-58
2022/11/07 04:32:23;;;;;;;9.48;5.60;;;9.80;99.90;;;;;;5046827;28;20021;-59
2022/11/07 04:35:09;;;;;;;6.68;5.13;;;9.80;99.90;;;;;;5047026;28;20409;-59
2022/11/07 04:37:55;;;;;;;7.97;5.30;;;9.70;99.90;;;;;;5047511;28;20512;-57
2022/11/07 04:40:41;;;;;;;7.63;5.60;;;9.70;99.90;;;;;;5048314;28;20075;-58
2022/11/07 04:43:27;;;;;;;7.63;5.32;;;9.60;99.90;;;;;;5033663;28;20033;-59
2022/11/07 04:46:13;;;;;;;5.70;4.93;;;9.70;99.90;;;;;;5045300;28;20033;-60
2022/11/07 04:48:59;;;;;;;7.28;5.40;;;9.60;99.90;;;;;;5046814;28;20075;-55
2022/11/07 04:51:45;;;;;;;6.70;5.85;;;9.60;99.90;;;;;;5048775;28;20021;-59
2022/11/07 04:54:31;;;;;;;5.65;4.90;;;9.60;99.90;;;;;;5028316;28;20032;-59
2022/11/07 04:57:18;;;;;;;6.38;5.10;;;9.70;99.90;;;;;;5047101;28;20112;-59
2022/11/07 05:00:04;;;;;;;7.78;5.80;;;9.70;99.90;;;;;;5051148;28;20036;-57
2022/11/07 05:02:50;;;;;;;6.65;5.95;;;9.70;99.90;;;;;;5049388;28;20033;-57
2022/11/07 05:05:36;;;;;;;6.60;5.90;;;9.70;99.90;;;;;;5049993;28;20060;-60
2022/11/07 05:08:22;;;;;;;7.65;5.88;;;9.60;99.90;;;;;;5051355;28;20036;-57
2022/11/07 05:11:08;;;;;;;6.95;6.22;;;9.70;99.90;;;;;;5051349;28;20017;-59
2022/11/07 05:13:54;;;;;;;7.90;6.55;;;9.60;99.90;;;;;;5036081;28;20588;-59
2022/11/07 05:16:41;;;;;;;7.88;6.00;;;9.60;99.90;;;;;;5050773;28;20037;-59
2022/11/07 05:19:27;;;;;;;9.52;6.35;;;9.60;99.90;;;;;;5048788;28;20454;-58
2022/11/07 05:25:18;;;;;;;9.02;5.57;;;9.60;99.90;;;;;;5049194;28;20075;-59
2022/11/07 05:28:05;;;;;;;6.68;5.97;;;9.60;99.90;;;;;;5050458;28;20025;-57
2022/11/07 05:30:51;;;;;;;6.63;4.80;;;9.60;99.90;;;;;;5048878;28;20045;-59
2022/11/07 05:33:37;;;;;;;14.10;9.20;;;9.60;99.90;;;;;;5050747;28;20029;-61
2022/11/07 05:36:23;;;;;;;12.00;6.32;;;9.60;99.90;;;;;;5036809;28;20025;-58
2022/11/07 05:39:09;;;;;;;5.97;5.15;;;9.60;99.90;;;;;;5050599;28;20021;-59
2022/11/07 05:41:55;;;;;;;7.70;5.53;;;9.70;99.90;;;;;;5048395;28;20171;-57
2022/11/07 05:44:41;;;;;;;7.45;5.30;;;9.70;99.90;;;;;;5050936;28;20045;-61
2022/11/07 05:47:27;;;;;;;6.18;5.47;;;9.70;99.90;;;;;;5047842;28;20082;-59
2022/11/07 05:50:13;;;;;;;12.23;8.02;;;9.70;99.90;;;;;;5034533;28;20021;-64
2022/11/07 05:52:59;;;;;;;9.85;7.63;;;9.80;99.90;;;;;;5046100;28;20029;-59
2022/11/07 05:55:45;;;;;;;8.18;5.38;;;9.70;99.90;;;;;;5050496;28;20040;-59
2022/11/07 05:58:31;;;;;;;8.02;5.72;;;9.90;99.90;;;;;;5033865;28;20116;-58
2022/11/07 06:01:17;;;;;;;5.97;4.63;;;9.90;99.90;;;;;;5049603;28;20112;-61
2022/11/07 06:04:04;;;;;;;5.80;4.25;;;9.90;99.90;;;;;;5051006;28;20029;-60
2022/11/07 06:06:50;;;;;;;5.20;4.10;;;9.90;99.90;;;;;;5032507;28;20033;-61
2022/11/07 06:09:36;;;;;;;5.63;4.40;;;9.80;99.90;;;;;;5049862;28;20025;-60
2022/11/07 06:12:21;;;;;;;8.65;4.63;;;9.90;99.90;;;;;;5049658;28;20039;-61
2022/11/07 06:15:08;;;;;;;10.85;4.95;;;9.80;99.90;;;;;;5051475;28;20116;-60
2022/11/07 06:17:54;;;;;;;6.70;4.63;;;9.90;99.90;;;;;;5035241;28;20025;-58
2022/11/07 06:20:40;;;;;;;5.63;4.57;;;10.00;99.90;;;;;;5048838;28;20124;-60
2022/11/07 06:23:26;;;;;;;5.93;4.45;;;10.00;99.90;;;;;;5036665;28;20029;-59
2022/11/07 06:26:12;;;;;;;6.35;4.22;;;10.00;99.90;;;;;;5048751;28;20404;-60
2022/11/07 06:28:58;;;;;;;7.20;4.95;;;10.00;99.90;;;;;;5052843;28;20018;-59
2022/11/07 06:31:44;;;;;;;6.20;4.20;;;10.00;99.90;;;;;;5049643;28;20400;-59
2022/11/07 06:34:30;;;;;;;8.73;4.55;;;10.00;99.90;;;;;;5059934;28;20036;-60
2022/11/07 06:37:16;;;;;;;8.88;5.60;;;10.00;99.90;;;;;;5051442;28;20040;-62
2022/11/07 06:40:02;;;;;;;4.95;4.03;;;10.20;99.90;;;;;;5063608;28;20485;-58
2022/11/07 06:42:48;;;;;;;5.57;4.40;;;10.20;99.90;;;;;;5043118;28;20108;-58
2022/11/07 06:45:34;;;;;;;5.68;4.88;;;10.20;99.90;;;;;;5049879;28;20037;-58
2022/11/07 06:48:20;;;;;;;15.00;4.80;;;10.30;99.90;;;;;;5050200;28;20013;-59
2022/11/07 06:51:08;;;;;;;5.38;4.32;;;10.20;99.90;;;;;;5017135;28;20034;-60
2022/11/07 06:53:54;;;;;;;6.75;4.65;;;10.20;99.90;;;;;;5038419;28;20025;-60
2022/11/07 06:56:40;;;;;;;8.85;4.57;;;10.20;99.90;;;;;;5047247;28;20033;-61
2022/11/07 06:59:26;;;;;;;5.57;4.35;;;10.30;99.90;;;;;;5046643;28;20037;-58
2022/11/07 07:02:12;;;;;;;6.07;4.20;;;10.20;99.90;;;;;;5042027;28;20029;-55
2022/11/07 07:04:58;;;;;;;5.93;4.43;;;10.30;99.90;;;;;;5029700;28;20033;-57
2022/11/07 07:07:44;;;;;;;6.63;4.63;;;10.30;99.90;;;;;;5050375;28;20120;-55
2022/11/07 07:10:33;;;;;;;8.10;4.93;;;10.20;99.90;;;;;;5050196;28;20147;-54
2022/11/07 07:13:19;;;;;;;5.60;4.53;;;10.30;99.90;;;;;;5037183;28;20032;-59
2022/11/07 07:16:06;;;;;;;7.10;3.78;;;10.20;99.90;;;;;;5052503;28;20036;-60
2022/11/07 07:18:52;;;;;;;6.90;4.25;;;10.20;99.90;;;;;;5049195;28;20029;-58
2022/11/07 07:21:38;;;;;;;8.57;4.40;;;10.20;99.90;;;;;;5052466;28;20028;-62
2022/11/07 07:24:24;;;;;;;5.80;4.32;;;10.20;99.90;;;;;;5052282;28;20033;-59
2022/11/07 07:27:10;;;;;;;6.32;4.25;;;10.20;99.90;;;;;;5048489;28;20061;-61
2022/11/07 07:29:56;;;;;;;7.97;5.07;;;10.30;99.90;;;;;;5021961;28;20501;-56
2022/11/07 07:32:42;;;;;;;6.93;4.38;;;10.30;99.90;;;;;;5034137;28;20473;-57
2022/11/07 07:35:27;;;;;;;5.97;4.72;;;10.20;99.90;;;;;;5018319;28;20031;-59
2022/11/07 07:38:13;;;;;;;8.65;4.35;;;10.30;99.90;;;;;;5035483;28;20029;-58
2022/11/07 07:41:00;;;;;;;9.30;5.68;;;10.30;99.90;;;;;;5049305;28;20746;-59
2022/11/07 07:43:46;;;;;;;6.47;4.30;;;10.40;99.90;;;;;;5049712;28;20036;-60
2022/11/07 07:46:32;;;;;;;4.05;3.47;;;10.50;99.90;;;;;;5035650;28;20025;-60
2022/11/07 07:49:18;;;;;;;4.50;3.70;;;10.50;99.90;;;;;;5048901;28;20036;-56
2022/11/07 07:52:04;;;;;;;6.20;3.60;;;10.60;99.90;;;;;;5049471;28;20029;-59
2022/11/07 07:54:50;;;;;;;5.00;3.40;;;10.70;99.90;;;;;;5021934;28;20582;-60
2022/11/07 07:57:42;;;;;;;6.10;4.10;;;10.60;99.90;;;;;;5048508;28;20037;-62
2022/11/07 08:00:34;;;;;;;4.50;3.72;;;10.70;99.90;;;;;;5031745;28;20034;-59
2022/11/07 08:03:20;;;;;;;8.75;4.10;;;10.70;99.90;;;;;;5002240;28;20095;-59
2022/11/07 08:06:06;;;;;;;6.18;4.45;;;10.70;99.90;;;;;;5045442;28;20036;-57
2022/11/07 08:08:52;;;;;;;5.60;3.60;;;10.70;99.90;;;;;;5032060;28;20021;-56
2022/11/07 08:11:38;;;;;;;4.88;3.88;;;10.70;99.90;;;;;;5048965;28;20095;-58
2022/11/07 08:14:24;;;;;;;5.63;3.28;;;10.80;99.90;;;;;;5048991;28;20030;-59
2022/11/07 08:17:10;;;;;;;6.13;3.42;;;10.80;99.90;;;;;;5035048;28;20151;-59
2022/11/07 08:19:56;;;;;;;6.88;4.03;;;10.80;99.90;;;;;;5048995;28;20021;-59
2022/11/07 08:22:42;;;;;;;4.45;3.47;;;10.90;99.90;;;;;;5034753;28;20028;-58
2022/11/07 08:25:28;;;;;;;4.85;3.90;;;10.90;99.90;;;;;;5048812;28;20080;-60
2022/11/07 08:28:14;;;;;;;6.82;3.72;;;10.90;99.90;;;;;;5033781;28;20400;-58
2022/11/07 08:31:05;;;;;;;7.30;4.25;;;11.00;99.90;;;;;;5053217;28;20493;-60
2022/11/07 08:33:51;;;;;;;6.47;3.63;;;11.20;99.90;;;;;;5037361;28;20040;-61
2022/11/07 08:36:37;;;;;;;5.82;4.18;;;11.30;99.90;;;;;;5048592;28;20021;-60
2022/11/07 08:39:23;;;;;;;7.32;4.53;;;11.30;99.90;;;;;;5048074;28;20021;-60
2022/11/07 08:42:09;;;;;;;6.88;4.93;;;11.40;99.90;;;;;;5051900;28;20021;-61
2022/11/07 08:44:55;;;;;;;4.53;3.92;;;11.50;99.90;;;;;;5053094;28;20078;-59
2022/11/07 08:47:41;;;;;;;9.52;4.53;;;11.50;99.90;;;;;;5038242;28;20047;-60
2022/11/07 08:50:27;;;;;;;5.13;3.92;;;11.40;99.90;;;;;;5052497;28;20032;-60
2022/11/07 08:53:13;;;;;;;10.50;4.30;;;11.40;99.90;;;;;;5018638;28;20432;-58
2022/11/07 08:56:04;;;;;;;7.28;4.50;;;11.40;99.90;;;;;;5039311;28;20166;-62
2022/11/07 08:58:50;;;;;;;5.65;4.03;;;11.50;99.90;;;;;;5052554;28;20108;-59
2022/11/07 09:01:36;;;;;;;7.70;4.13;;;11.50;99.90;;;;;;5051352;28;20099;-60
2022/11/07 09:04:22;;;;;;;9.55;3.88;;;11.60;99.90;;;;;;5017653;28;20034;-59
2022/11/07 09:07:08;;;;;;;5.28;3.70;;;11.60;99.90;;;;;;5031589;28;20029;-60
2022/11/07 09:09:53;;;;;;;6.47;3.85;;;11.70;99.90;;;;;;5032884;28;20022;-60
2022/11/07 09:12:47;;;;;;;15.18;4.70;;;11.80;99.90;;;;;;5032344;28;20563;-61
2022/11/07 09:15:33;;;;;;;8.40;4.07;;;12.00;99.90;;;;;;5019009;28;20393;-62
2022/11/07 09:18:19;;;;;;;12.35;4.60;;;12.00;99.90;;;;;;5034462;28;20040;-57
2022/11/07 09:21:05;;;;;;;6.78;4.28;;;12.20;99.90;;;;;;5052055;28;20508;-61
2022/11/07 09:23:51;;;;;;;6.28;4.15;;;12.30;99.90;;;;;;5051991;28;20045;-59
2022/11/07 09:26:37;;;;;;;5.55;4.10;;;12.40;99.90;;;;;;5052156;28;20017;-61
2022/11/07 09:29:23;;;;;;;8.75;3.75;;;12.50;99.90;;;;;;5019082;28;20438;-62
2022/11/07 09:32:09;;;;;;;8.27;4.03;;;12.70;99.90;;;;;;5035439;28;20112;-60
2022/11/07 09:34:55;;;;;;;5.13;3.70;;;12.70;99.90;;;;;;5038611;28;20444;-60
2022/11/07 09:37:41;;;;;;;5.80;4.13;;;12.90;99.90;;;;;;5050302;28;20438;-59
2022/11/07 09:40:50;;;;;;;6.28;4.43;;;13.00;99.90;;;;;;5043826;28;20056;-60
2022/11/07 09:44:01;;;;;;;9.35;3.63;;;12.90;99.90;;;;;;5037422;28;20110;-59
2022/11/07 09:46:49;;;;;;;5.82;4.03;;;12.90;99.90;;;;;;5051290;28;20613;-58
2022/11/07 09:49:42;;;;;;;7.15;3.90;;;13.00;99.90;;;;;;5051113;28;20056;-59
2022/11/07 09:52:48;;;;;;;7.15;4.13;;;13.10;99.90;;;;;;5031375;28;20494;-60
2022/11/07 09:55:51;;;;;;;5.43;3.40;;;13.20;99.90;;;;;;5044569;28;20386;-60
2022/11/07 09:58:42;;;;;;;5.05;3.60;;;13.30;99.90;;;;;;5051825;28;20446;-62
2022/11/07 10:01:30;;;;;;;8.30;4.15;;;13.40;99.90;;;;;;5024747;28;20082;-59
2022/11/07 10:04:20;;;;;;;6.05;3.95;;;13.50;99.90;;;;;;5050827;28;20032;-60
2022/11/07 10:07:24;;;;;;;9.73;4.07;;;13.60;99.90;;;;;;5049829;28;20031;-59
2022/11/07 10:10:36;;;;;;;5.18;3.30;;;13.70;99.90;;;;;;5049546;28;20025;-60
2022/11/07 10:13:43;;;;;;;7.93;3.35;;;13.80;99.90;;;;;;5042653;28;20497;-58
2022/11/07 10:17:08;;;;;;;6.20;3.50;;;13.70;99.90;;;;;;5035975;28;20013;-60
2022/11/07 10:19:57;;;;;;;8.43;3.53;;;13.70;99.90;;;;;;5050678;28;20028;-60
2022/11/07 10:22:46;;;;;;;10.15;3.30;;;13.70;99.90;;;;;;5031583;28;20470;-60
2022/11/07 10:25:43;;;;;;;8.52;3.58;;;13.70;99.90;;;;;;5035703;28;20029;-60
2022/11/07 10:28:30;;;;;;;8.82;3.60;;;13.70;99.90;;;;;;5051277;28;20082;-58
2022/11/07 10:31:16;;;;;;;4.88;3.55;;;13.70;99.90;;;;;;5028431;28;20056;-61
2022/11/07 10:34:25;;;;;;;6.78;3.58;;;13.70;99.90;;;;;;5051279;28;20091;-59
2022/11/07 10:37:11;;;;;;;7.97;3.50;;;13.60;99.90;;;;;;5034406;28;20024;-60
2022/11/07 10:39:57;;;;;;;8.93;3.30;;;13.70;99.90;;;;;;5051189;28;20033;-60
2022/11/07 10:42:45;;;;;;;9.52;3.63;;;13.60;99.90;;;;;;5050611;28;20463;-62
2022/11/07 10:45:31;;;;;;;6.15;3.42;;;13.60;99.90;;;;;;5050405;28;20032;-60
2022/11/07 10:48:17;;;;;;;7.60;3.15;;;13.70;99.90;;;;;;5045817;28;20508;-60
2022/11/07 10:51:03;;;;;;;7.57;3.20;;;13.70;99.90;;;;;;5036232;28;20063;-60
2022/11/07 10:53:52;;;;;;;7.60;3.50;;;13.60;99.90;;;;;;5049374;28;20036;-60
2022/11/07 10:56:53;;;;;;;7.30;3.42;;;13.50;99.90;;;;;;5015228;28;20067;-62
2022/11/07 10:59:44;;;;;;;6.60;3.33;;;13.60;99.90;;;;;;5043235;28;20074;-59
2022/11/07 11:02:42;;;;;;;10.48;3.97;;;13.70;99.90;;;;;;5049708;28;20119;-63
2022/11/07 11:05:45;;;;;;;9.48;3.75;;;13.70;99.90;;;;;;5027823;28;20156;-63
2022/11/07 11:08:36;;;;;;;9.60;3.50;;;13.80;99.90;;;;;;5050217;28;20086;-61
2022/11/07 11:11:31;;;;;;;6.25;2.95;;;13.90;99.90;;;;;;5048332;28;20021;-58
2022/11/07 11:14:20;;;;;;;6.15;3.20;;;13.90;99.90;;;;;;5031539;28;20045;-58
2022/11/07 11:17:25;;;;;;;7.50;3.75;;;13.80;99.90;;;;;;5016585;28;20627;-61
2022/11/07 11:20:42;;;;;;;7.18;3.25;;;13.80;99.90;;;;;;5031694;28;20041;-61
2022/11/07 11:23:29;;;;;;;;;;;13.80;99.90;;;;;;5033773;28;20096;-59
2022/11/07 11:26:35;;;;;;;6.57;3.05;;;13.90;99.90;;;;;;5048137;28;19917;-59
2022/11/07 11:29:42;;;;;;;6.35;3.28;;;13.80;99.90;;;;;;5048175;28;20596;-59
2022/11/07 11:32:43;;;;;;;5.80;3.42;;;13.80;99.90;;;;;;5049109;28;20048;-60
2022/11/07 11:35:55;;;;;;;8.77;3.17;;;13.90;99.90;;;;;;5049226;28;20052;-62
2022/11/07 11:38:44;;;;;;;9.15;3.25;;;13.90;99.90;;;;;;5049668;28;20102;-61
2022/11/07 11:41:52;;;;;;;11.93;3.55;;;14.00;99.90;;;;;;5048004;28;20470;-61
2022/11/07 11:44:42;;;;;;;8.40;3.40;;;13.90;99.90;;;;;;5034693;28;20041;-61
2022/11/07 11:47:38;;;;;;;22.13;5.32;;;14.00;99.90;;;;;;5048357;28;20543;-60
2022/11/07 11:50:40;;;;;;;11.57;4.28;;;13.90;99.90;;;;;;5048832;28;20151;-64
2022/11/07 11:53:29;;;;;;;6.90;3.17;;;14.00;99.90;;;;;;5036516;28;20024;-60
2022/11/07 11:56:38;;;;;;;6.40;2.83;;;14.00;99.90;;;;;;5049483;28;20497;-63
2022/11/07 11:59:50;;;;;;;5.65;2.97;;;13.90;99.90;;;;;;5033335;28;20072;-59
2022/11/07 12:02:39;;;;;;;10.63;3.40;;;13.90;99.90;;;;;;5036030;28;20024;-63
2022/11/07 12:05:34;;;;;;;6.53;3.15;;;14.00;99.90;;;;;;5049153;28;20162;-63
2022/11/07 12:08:38;;;;;;;;;;;13.90;99.90;;;;;;5049182;28;20102;-61
2022/11/07 12:11:44;;;;;;;7.32;3.40;;;13.90;99.90;;;;;;5049632;28;20013;-59
2022/11/07 12:14:58;;;;;;;6.60;3.17;;;13.90;99.90;;;;;;5049043;28;20559;-59
2022/11/07 12:18:26;;;;;;;5.15;2.70;;;13.90;99.90;;;;;;5048649;28;20061;-61
2022/11/07 12:21:17;;;;;;;5.28;2.90;;;13.80;99.90;;;;;;5029668;28;20029;-59
2022/11/07 12:24:26;;;;;;;6.15;3.20;;;13.90;99.90;;;;;;5050262;28;20025;-64
2022/11/07 12:27:30;;;;;;;7.35;3.00;;;13.80;99.90;;;;;;5049354;28;20032;-60
2022/11/07 12:30:26;;;;;;;6.60;3.30;;;13.90;99.90;;;;;;5034238;28;20036;-59
2022/11/07 12:33:50;;;;;;;12.80;4.00;;;13.80;99.90;;;;;;5048118;28;20021;-61
2022/11/07 12:36:48;;;;;;;4.72;3.20;;;13.90;99.90;;;;;;5049452;28;20032;-62
2022/11/07 12:40:12;;;;;;;8.43;3.35;;;13.90;99.90;;;;;;5048589;28;20032;-62
2022/11/07 12:43:39;;;;;;;7.32;3.00;;;13.90;99.90;;;;;;5049550;28;20087;-60
2022/11/07 12:46:34;;;;;;;9.38;3.65;;;13.90;99.90;;;;;;4988100;28;20170;-61
2022/11/07 12:49:50;;;;;;;7.60;3.58;;;13.90;99.90;;;;;;5049211;28;20085;-61
2022/11/07 12:52:57;;;;;;;;;;;14.00;99.90;;;;;;5035959;28;20025;-59
2022/11/07 12:55:48;;;;;;;7.53;3.42;;;14.00;99.90;;;;;;5048621;28;19904;-61
2022/11/07 12:58:37;;;;;;;6.18;3.20;;;14.00;99.90;;;;;;5049466;28;20032;-62
2022/11/07 13:01:53;;;;;;;6.45;3.40;;;14.00;99.90;;;;;;5048090;28;20025;-58
2022/11/07 13:05:08;;;;;;;8.93;3.30;;;14.00;99.90;;;;;;5048953;28;20103;-60
2022/11/07 13:08:18;;;;;;;5.28;2.90;;;14.10;99.90;;;;;;5032382;28;20029;-61
2022/11/07 13:11:21;;;;;;;4.97;2.80;;;14.10;99.90;;;;;;5048024;28;20059;-60
2022/11/07 13:14:32;;;;;;;5.82;3.00;;;14.20;99.90;;;;;;5036383;28;20120;-60
2022/11/07 13:17:36;;;;;;;9.90;3.50;;;14.20;99.90;;;;;;5051793;28;20029;-61
2022/11/07 13:20:30;;;;;;;7.28;3.40;;;14.30;99.90;;;;;;5051012;28;20450;-61
2022/11/07 13:23:16;;;;;;;5.43;2.78;;;14.30;99.90;;;;;;5052430;28;20100;-61
2022/11/07 13:26:06;;;;;;;9.00;3.55;;;14.30;99.90;;;;;;5047540;28;20108;-59
2022/11/07 13:28:56;;;;;;;7.57;3.83;;;14.30;99.90;;;;;;5038222;28;20022;-61
2022/11/07 13:31:44;;;;;;;7.25;3.22;;;14.30;99.90;;;;;;5027318;28;20036;-60
2022/11/07 13:34:48;;;;;;;5.65;2.70;;;14.30;99.90;;;;;;5045847;28;20036;-61
2022/11/07 13:37:39;;;;;;;5.43;2.80;;;14.20;99.90;;;;;;5045912;28;20500;-61
2022/11/07 13:40:36;;;;;;;7.15;2.60;;;14.20;99.90;;;;;;5051049;28;20035;-59
2022/11/07 13:43:25;;;;;;;5.45;3.03;;;14.30;99.90;;;;;;5052121;28;20112;-59
2022/11/07 13:46:20;;;;;;;9.20;3.30;;;14.30;99.90;;;;;;5031040;28;20099;-61
2022/11/07 13:49:21;;;;;;;8.05;3.13;;;14.20;99.90;;;;;;5034681;28;20017;-60
2022/11/07 13:52:19;;;;;;;5.85;3.00;;;14.30;99.90;;;;;;5051201;28;20021;-62
2022/11/07 13:55:15;;;;;;;8.20;2.70;;;14.20;99.90;;;;;;5048654;28;20440;-58
2022/11/07 13:58:06;;;;;;;5.40;2.75;;;14.20;99.90;;;;;;5036126;28;20469;-60
2022/11/07 14:00:52;;;;;;;8.20;3.20;;;14.20;99.90;;;;;;5037963;28;20128;-60
2022/11/07 14:03:38;;;;;;;6.30;3.22;;;14.20;99.90;;;;;;5017843;28;20393;-59
2022/11/07 14:06:25;;;;;;;7.22;3.50;;;14.20;99.90;;;;;;5039805;28;20090;-61
2022/11/07 14:09:20;;;;;;;4.82;2.70;;;14.20;99.90;;;;;;5036860;28;20429;-62
2022/11/07 14:12:06;;;;;;;7.53;3.13;;;14.20;99.90;;;;;;5049996;28;20077;-61
2022/11/07 14:14:54;;;;;;;7.18;3.00;;;14.30;99.90;;;;;;5050527;28;20033;-61
2022/11/07 14:17:42;;;;;;;6.80;3.28;;;14.30;99.90;;;;;;5050586;28;20044;-60
2022/11/07 14:20:29;;;;;;;9.48;3.13;;;14.30;99.90;;;;;;5049257;28;20033;-61
2022/11/07 14:23:18;;;;;;;5.75;3.13;;;14.30;99.90;;;;;;5050390;28;20017;-62
2022/11/07 14:26:28;;;;;;;9.50;2.83;;;14.30;99.90;;;;;;5037213;28;20044;-60
2022/11/07 14:29:21;;;;;;;6.35;2.63;;;14.30;99.90;;;;;;5037506;28;20017;-61
2022/11/07 14:32:15;;;;;;;8.23;2.63;;;14.20;99.90;;;;;;5049741;28;20029;-64
2022/11/07 14:35:06;;;;;;;7.15;3.15;;;14.20;99.90;;;;;;5051569;28;20033;-59
2022/11/07 14:37:52;;;;;;;7.13;3.22;;;14.20;99.90;;;;;;5033106;28;20048;-61
2022/11/07 14:40:46;;;;;;;5.20;3.35;;;14.30;99.90;;;;;;5047777;28;20033;-62
2022/11/07 14:43:34;;;;;;;6.75;3.10;;;14.30;99.90;;;;;;5036018;28;20037;-60
2022/11/07 14:46:22;;;;;;;5.75;2.70;;;14.30;99.90;;;;;;5049835;28;20083;-59
2022/11/07 14:49:23;;;;;;;6.10;3.10;;;14.30;99.90;;;;;;5031266;28;20057;-59
2022/11/07 14:52:24;;;;;;;9.27;2.85;;;14.30;99.90;;;;;;5013928;28;20501;-61
2022/11/07 14:55:19;;;;;;;5.45;2.95;;;14.20;99.90;;;;;;5049971;28;20090;-57
2022/11/07 14:58:09;;;;;;;6.40;3.00;;;14.20;99.90;;;;;;5030873;28;20104;-61
2022/11/07 15:01:10;;;;;;;9.15;3.38;;;14.20;99.90;;;;;;5049127;28;20025;-61